Time;durP1;ratioP1;P1;durP2;ratioP2;P2;SDS_P1;SDS_P2;PMS_P1;PMS_P2;Temp;Humidity;BMP_temperature;BMP_pressure;BME280_temperature;BME280_humidity;BME280_pressure;Samples;Min_cycle;Max_cycle;Signal;HPM_P1;HPM_P2
2021/05/19 00:02:07;;;;;;;12.00;9.02;;;9.60;98.30;;;;;;5093230;28;20055;-68
2021/05/19 00:04:33;;;;;;;10.82;8.85;;;9.60;98.30;;;;;;5093581;28;20055;-68
2021/05/19 00:06:59;;;;;;;10.65;7.68;;;9.60;98.40;;;;;;5093738;28;20486;-68
2021/05/19 00:09:24;;;;;;;11.57;8.43;;;9.60;98.30;;;;;;5093154;28;20115;-69
2021/05/19 00:11:50;;;;;;;13.18;8.85;;;9.60;98.30;;;;;;5093119;28;20044;-69
2021/05/19 00:14:18;;;;;;;12.25;8.68;;;9.60;98.30;;;;;;5093259;28;20438;-68
2021/05/19 00:16:47;;;;;;;10.15;8.68;;;9.60;98.30;;;;;;5091851;28;20115;-68
2021/05/19 00:19:13;;;;;;;12.98;8.95;;;9.60;98.20;;;;;;5095133;28;20094;-68
2021/05/19 00:21:39;;;;;;;15.43;9.43;;;9.60;98.30;;;;;;5096884;28;20038;-68
2021/05/19 00:24:07;;;;;;;11.57;8.43;;;9.50;98.40;;;;;;5097138;28;20036;-69
2021/05/19 00:26:32;;;;;;;12.73;8.73;;;9.50;98.40;;;;;;5097631;28;20135;-68
2021/05/19 00:28:58;;;;;;;11.23;8.85;;;9.50;98.40;;;;;;5096762;28;20071;-68
2021/05/19 00:31:26;;;;;;;11.13;8.48;;;9.50;98.30;;;;;;5096562;28;20036;-68
2021/05/19 00:33:52;;;;;;;14.23;8.70;;;9.50;98.20;;;;;;5096867;28;20071;-68
2021/05/19 00:36:18;;;;;;;11.27;8.73;;;9.50;98.50;;;;;;5097254;28;20039;-68
2021/05/19 00:38:44;;;;;;;10.02;8.05;;;9.40;98.20;;;;;;5095031;28;20060;-69
2021/05/19 00:41:12;;;;;;;11.60;8.80;;;9.40;98.10;;;;;;5096582;28;20072;-68
2021/05/19 00:43:39;;;;;;;13.55;9.18;;;9.40;98.10;;;;;;5096554;28;20036;-68
2021/05/19 00:46:06;;;;;;;12.77;9.35;;;9.40;98.10;;;;;;5096534;28;20050;-68
2021/05/19 00:48:32;;;;;;;13.10;9.52;;;9.30;98.10;;;;;;5096091;28;20039;-69
2021/05/19 00:50:58;;;;;;;12.25;8.65;;;9.30;98.10;;;;;;5096352;28;20032;-69
2021/05/19 00:53:24;;;;;;;12.60;9.68;;;9.30;98.10;;;;;;5096543;28;20040;-68
2021/05/19 00:55:50;;;;;;;11.27;8.88;;;9.30;98.10;;;;;;5096511;28;20494;-68
2021/05/19 00:58:16;;;;;;;9.35;8.35;;;9.20;97.90;;;;;;5096427;28;20430;-68
2021/05/19 01:00:42;;;;;;;10.70;8.85;;;9.10;97.80;;;;;;5095944;28;20040;-68
2021/05/19 01:03:08;;;;;;;11.75;9.15;;;9.10;97.80;;;;;;5096100;28;20115;-68
2021/05/19 01:05:39;;;;;;;10.90;8.48;;;9.00;97.90;;;;;;5096703;28;20040;-68
2021/05/19 01:10:51;;;;;;;10.80;8.25;;;8.90;97.90;;;;;;5095742;28;20093;-68
2021/05/19 01:13:18;;;;;;;10.15;7.88;;;8.90;98.00;;;;;;5096485;28;20115;-68
2021/05/19 01:15:45;;;;;;;9.25;7.82;;;8.80;98.00;;;;;;5096538;28;20040;-68
2021/05/19 01:18:11;;;;;;;10.38;8.00;;;8.80;97.90;;;;;;5095926;28;20040;-68
2021/05/19 01:20:37;;;;;;;10.95;7.35;;;8.80;98.00;;;;;;5095448;28;20046;-68
2021/05/19 01:23:04;;;;;;;13.38;7.80;;;8.70;97.90;;;;;;5096183;28;20119;-68
2021/05/19 01:25:30;;;;;;;9.95;7.20;;;8.70;97.90;;;;;;5095813;28;20036;-68
2021/05/19 01:28:00;;;;;;;10.07;7.85;;;8.70;98.00;;;;;;5095862;28;20093;-68
2021/05/19 01:30:28;;;;;;;12.02;8.32;;;8.70;98.00;;;;;;5094103;28;20043;-68
2021/05/19 01:32:54;;;;;;;10.07;7.55;;;8.60;98.10;;;;;;5095614;28;20032;-68
2021/05/19 01:35:21;;;;;;;8.98;7.55;;;8.70;98.10;;;;;;5095679;28;20104;-68
2021/05/19 01:37:47;;;;;;;10.20;8.07;;;8.70;98.10;;;;;;5095849;28;20040;-68
2021/05/19 01:40:16;;;;;;;8.55;7.65;;;8.60;98.20;;;;;;5095311;28;20151;-68
2021/05/19 01:42:45;;;;;;;11.63;7.93;;;8.60;98.20;;;;;;5095433;28;20040;-68
2021/05/19 01:45:13;;;;;;;12.40;8.32;;;8.60;98.20;;;;;;5095169;28;20047;-68
2021/05/19 01:47:46;;;;;;;13.93;9.07;;;8.60;98.30;;;;;;5095382;28;20043;-68
2021/05/19 01:50:17;;;;;;;12.87;8.57;;;8.60;98.30;;;;;;5095180;28;20397;-68
2021/05/19 01:52:44;;;;;;;11.63;8.88;;;8.50;98.30;;;;;;5095322;28;20278;-68
2021/05/19 01:55:11;;;;;;;9.75;8.23;;;8.60;98.50;;;;;;5095145;28;20065;-68
2021/05/19 01:57:37;;;;;;;10.90;7.88;;;8.60;98.40;;;;;;5095072;28;20126;-68
2021/05/19 02:00:06;;;;;;;10.30;8.32;;;8.50;98.30;;;;;;5095077;28;20055;-68
2021/05/19 02:02:32;;;;;;;10.35;8.48;;;8.50;98.20;;;;;;5095249;28;20040;-68
2021/05/19 02:04:58;;;;;;;12.60;8.57;;;8.50;98.20;;;;;;5095087;28;20488;-68
2021/05/19 02:07:24;;;;;;;10.60;9.07;;;8.50;98.30;;;;;;5095426;28;20040;-68
2021/05/19 02:09:50;;;;;;;15.05;9.25;;;8.50;98.50;;;;;;5094603;28;20032;-68
2021/05/19 02:12:16;;;;;;;12.10;9.25;;;8.50;98.50;;;;;;5095439;28;20086;-69
2021/05/19 02:14:42;;;;;;;10.98;8.95;;;8.50;98.50;;;;;;5094754;28;20044;-68
2021/05/19 02:17:08;;;;;;;10.73;8.23;;;8.50;98.40;;;;;;5095057;28;20441;-68
2021/05/19 02:19:35;;;;;;;9.32;7.53;;;8.50;98.30;;;;;;5094553;28;20112;-69
2021/05/19 02:22:00;;;;;;;10.55;7.85;;;8.50;98.30;;;;;;5094639;28;20040;-68
2021/05/19 02:24:26;;;;;;;9.35;7.53;;;8.40;98.30;;;;;;5095128;28;20418;-68
2021/05/19 02:26:52;;;;;;;8.68;7.60;;;8.40;98.20;;;;;;5095018;28;20044;-69
2021/05/19 02:29:18;;;;;;;9.63;7.18;;;8.40;98.20;;;;;;5094521;28;20057;-69
2021/05/19 02:31:44;;;;;;;10.45;7.70;;;8.40;98.30;;;;;;5094367;28;20032;-69
2021/05/19 02:34:10;;;;;;;8.43;7.32;;;8.30;98.20;;;;;;5094423;28;20058;-68
2021/05/19 02:36:37;;;;;;;11.95;7.88;;;8.40;98.40;;;;;;5094355;28;20115;-68
2021/05/19 02:39:07;;;;;;;9.23;7.57;;;8.40;98.50;;;;;;5094004;28;20032;-68
2021/05/19 02:41:33;;;;;;;9.90;7.90;;;8.40;98.50;;;;;;5094226;28;20127;-68
2021/05/19 02:43:58;;;;;;;9.57;7.03;;;8.40;98.60;;;;;;5094407;28;20119;-68
2021/05/19 02:46:24;;;;;;;8.32;7.15;;;8.40;98.50;;;;;;5094428;28;20120;-68
2021/05/19 02:48:50;;;;;;;7.80;6.97;;;8.40;98.60;;;;;;5093922;28;20048;-69
2021/05/19 02:51:17;;;;;;;8.18;6.63;;;8.40;98.60;;;;;;5094700;28;20036;-68
2021/05/19 02:53:43;;;;;;;7.45;6.45;;;8.40;98.50;;;;;;5094109;28;20059;-68
2021/05/19 02:56:09;;;;;;;8.95;7.43;;;8.40;98.50;;;;;;5093941;28;20460;-69
2021/05/19 02:58:35;;;;;;;8.70;7.68;;;8.40;98.50;;;;;;5093719;28;20086;-69
2021/05/19 03:01:01;;;;;;;10.10;7.70;;;8.40;98.60;;;;;;5093947;28;20491;-68
2021/05/19 03:03:27;;;;;;;9.35;7.82;;;8.40;98.60;;;;;;5094186;28;20036;-68
2021/05/19 03:05:53;;;;;;;10.32;7.40;;;8.40;98.60;;;;;;5093802;28;20081;-68
2021/05/19 03:08:18;;;;;;;9.57;7.55;;;8.40;98.70;;;;;;5094229;28;20411;-68
2021/05/19 03:10:44;;;;;;;10.73;8.50;;;8.40;98.70;;;;;;5093375;28;20131;-68
2021/05/19 03:13:10;;;;;;;9.05;7.40;;;8.40;98.70;;;;;;5092467;28;20051;-68
2021/05/19 03:15:36;;;;;;;10.60;8.43;;;8.50;98.70;;;;;;5092671;28;20089;-68
2021/05/19 03:18:02;;;;;;;8.32;7.43;;;8.50;98.60;;;;;;5094034;28;20529;-68
2021/05/19 03:20:30;;;;;;;8.85;7.95;;;8.50;98.60;;;;;;5093259;28;20365;-68
2021/05/19 03:22:57;;;;;;;11.73;8.40;;;8.40;98.60;;;;;;5093420;28;20047;-69
2021/05/19 03:25:22;;;;;;;9.13;7.70;;;8.50;98.80;;;;;;5093534;28;20047;-68
2021/05/19 03:27:48;;;;;;;8.88;7.90;;;8.50;98.80;;;;;;5093653;28;20036;-68
2021/05/19 03:30:16;;;;;;;9.93;7.68;;;8.50;98.80;;;;;;5093617;28;20040;-68
2021/05/19 03:32:42;;;;;;;9.73;8.02;;;8.50;98.80;;;;;;5093973;28;20043;-68
2021/05/19 03:35:09;;;;;;;10.80;8.38;;;8.60;98.80;;;;;;5093880;28;20487;-68
2021/05/19 03:37:37;;;;;;;11.43;8.55;;;8.60;98.80;;;;;;5093945;28;20091;-69
2021/05/19 03:40:06;;;;;;;10.93;7.63;;;8.60;98.80;;;;;;5093128;28;20051;-68
2021/05/19 03:42:33;;;;;;;10.50;8.13;;;8.60;98.80;;;;;;5093722;28;20127;-68
2021/05/19 03:44:59;;;;;;;11.68;8.05;;;8.60;98.80;;;;;;5093388;28;20051;-68
2021/05/19 03:47:25;;;;;;;11.15;8.68;;;8.70;98.80;;;;;;5093742;28;20036;-68
2021/05/19 03:49:51;;;;;;;15.18;9.55;;;8.70;98.80;;;;;;5092957;28;20395;-68
2021/05/19 03:52:17;;;;;;;10.25;8.23;;;8.70;98.90;;;;;;5093383;28;20062;-68
2021/05/19 03:54:43;;;;;;;12.07;8.10;;;8.70;98.90;;;;;;5096532;28;20097;-68
2021/05/19 03:57:09;;;;;;;10.75;7.30;;;8.70;98.90;;;;;;5098021;28;20468;-68
2021/05/19 03:59:35;;;;;;;11.52;8.18;;;8.80;98.90;;;;;;5097297;28;20044;-69
2021/05/19 04:02:01;;;;;;;11.63;8.73;;;8.80;98.90;;;;;;5096307;28;20032;-68
2021/05/19 04:04:26;;;;;;;11.43;8.93;;;8.80;98.90;;;;;;5097184;28;20123;-68
2021/05/19 04:06:52;;;;;;;10.93;8.20;;;8.70;99.00;;;;;;5097373;28;20043;-69
2021/05/19 04:09:18;;;;;;;12.18;8.98;;;8.80;99.00;;;;;;5096906;28;20063;-69
2021/05/19 04:11:44;;;;;;;11.50;8.23;;;8.80;99.10;;;;;;5097639;28;20068;-68
2021/05/19 04:14:10;;;;;;;12.73;9.02;;;8.80;99.10;;;;;;5097147;28;20036;-68
2021/05/19 04:16:36;;;;;;;11.00;8.95;;;8.80;99.10;;;;;;5097505;28;20043;-68
2021/05/19 04:19:03;;;;;;;12.35;10.00;;;8.80;99.10;;;;;;5097267;28;20047;-68
2021/05/19 04:21:29;;;;;;;13.23;8.70;;;8.80;99.20;;;;;;5096857;28;20055;-68
2021/05/19 04:23:55;;;;;;;11.98;9.32;;;8.90;99.30;;;;;;5096815;28;20032;-68
2021/05/19 04:26:21;;;;;;;11.95;9.88;;;8.90;99.20;;;;;;5097042;28;20122;-68
2021/05/19 04:28:46;;;;;;;11.35;8.70;;;8.90;99.20;;;;;;5096837;28;20460;-68
2021/05/19 04:31:13;;;;;;;13.27;10.05;;;8.90;99.20;;;;;;5096687;28;20040;-68
2021/05/19 04:33:38;;;;;;;11.00;8.88;;;8.90;99.20;;;;;;5097451;28;20043;-69
2021/05/19 04:36:04;;;;;;;13.50;10.38;;;8.90;99.10;;;;;;5097301;28;20092;-69
2021/05/19 04:38:30;;;;;;;14.77;9.23;;;8.90;99.10;;;;;;5096456;28;20028;-69
2021/05/19 04:40:56;;;;;;;12.45;10.20;;;8.90;99.20;;;;;;5096513;28;20036;-68
2021/05/19 04:43:23;;;;;;;14.50;11.68;;;8.90;99.20;;;;;;5096413;28;20046;-68
2021/05/19 04:45:49;;;;;;;21.90;13.95;;;9.00;99.40;;;;;;5096545;28;20480;-68
2021/05/19 04:48:14;;;;;;;18.20;13.38;;;9.00;99.50;;;;;;5097117;28;20054;-68
2021/05/19 04:50:41;;;;;;;18.33;14.35;;;9.10;99.70;;;;;;5096079;28;20089;-69
2021/05/19 04:53:07;;;;;;;16.70;12.45;;;9.10;99.70;;;;;;5096855;28;20521;-68
2021/05/19 04:55:34;;;;;;;18.52;13.85;;;9.30;99.80;;;;;;5096776;28;20434;-68
2021/05/19 04:58:00;;;;;;;21.88;16.25;;;9.30;99.80;;;;;;5096222;28;20514;-68
2021/05/19 05:00:26;;;;;;;19.50;15.60;;;9.40;99.80;;;;;;5096333;28;20068;-68
2021/05/19 05:02:52;;;;;;;24.63;16.05;;;9.40;99.90;;;;;;5096174;28;20150;-68
2021/05/19 05:05:18;;;;;;;21.70;16.35;;;9.40;99.90;;;;;;5096532;28;20127;-69
2021/05/19 05:07:43;;;;;;;21.15;14.93;;;9.40;99.90;;;;;;5096061;28;20459;-68
2021/05/19 05:10:11;;;;;;;20.02;14.88;;;9.50;99.80;;;;;;5095860;28;20399;-68
2021/05/19 05:12:37;;;;;;;22.75;16.17;;;9.50;99.90;;;;;;5096495;28;20036;-68
2021/05/19 05:15:14;;;;;;;21.77;15.10;;;9.60;99.80;;;;;;5096051;28;20055;-68
2021/05/19 05:17:40;;;;;;;21.05;15.50;;;9.60;99.90;;;;;;5096437;28;20056;-69
2021/05/19 05:20:10;;;;;;;22.77;17.17;;;9.60;99.80;;;;;;5096147;28;20109;-69
2021/05/19 05:22:37;;;;;;;17.45;14.60;;;9.70;99.90;;;;;;5096102;28;20040;-68
2021/05/19 05:25:04;;;;;;;23.23;15.80;;;9.80;99.80;;;;;;5096134;28;20372;-68
2021/05/19 05:27:30;;;;;;;24.20;17.17;;;9.80;99.70;;;;;;5096432;28;20125;-69
2021/05/19 05:29:56;;;;;;;23.60;16.80;;;9.90;99.70;;;;;;5095260;28;20128;-68
2021/05/19 05:32:21;;;;;;;21.50;16.52;;;10.10;99.80;;;;;;5095768;28;20479;-69
2021/05/19 05:34:47;;;;;;;18.33;13.70;;;10.20;99.80;;;;;;5095695;28;20035;-69
2021/05/19 05:37:13;;;;;;;23.45;16.45;;;10.30;99.40;;;;;;5095854;28;20035;-69
2021/05/19 05:39:39;;;;;;;20.92;16.17;;;10.50;99.30;;;;;;5095186;28;20032;-69
2021/05/19 05:42:05;;;;;;;24.70;16.85;;;10.70;99.20;;;;;;5095608;28;20036;-69
2021/05/19 05:44:31;;;;;;;23.95;15.57;;;10.70;99.10;;;;;;5095349;28;20078;-69
2021/05/19 05:46:56;;;;;;;24.73;16.77;;;10.90;99.10;;;;;;5095856;28;20452;-69
2021/05/19 05:49:22;;;;;;;19.75;13.43;;;10.90;99.00;;;;;;5095036;28;20115;-69
2021/05/19 05:51:48;;;;;;;16.02;12.85;;;11.00;98.80;;;;;;5095243;28;20063;-68
2021/05/19 05:54:14;;;;;;;17.58;13.90;;;11.10;98.60;;;;;;5095370;28;20079;-69
2021/05/19 05:56:42;;;;;;;16.35;13.07;;;11.20;98.10;;;;;;5095651;28;20043;-69
2021/05/19 05:59:09;;;;;;;15.10;12.25;;;11.30;97.90;;;;;;5094765;28;20157;-69
2021/05/19 06:01:35;;;;;;;17.08;13.48;;;11.30;97.80;;;;;;5095245;28;20032;-69
2021/05/19 06:04:00;;;;;;;16.45;11.68;;;11.30;97.60;;;;;;5095457;28;20044;-69
2021/05/19 06:06:26;;;;;;;15.30;11.73;;;11.20;97.50;;;;;;5095212;28;20127;-69
2021/05/19 06:08:52;;;;;;;16.08;12.38;;;11.20;97.20;;;;;;5094867;28;20039;-69
2021/05/19 06:11:18;;;;;;;18.10;12.02;;;11.20;97.20;;;;;;5095318;28;20036;-69
2021/05/19 06:13:44;;;;;;;14.20;11.25;;;11.10;97.30;;;;;;5095000;28;20035;-69
2021/05/19 06:16:09;;;;;;;16.38;12.77;;;11.10;97.20;;;;;;5094794;28;20089;-68
2021/05/19 06:18:35;;;;;;;16.25;11.98;;;11.10;97.30;;;;;;5094501;28;20040;-68
2021/05/19 06:21:01;;;;;;;17.80;12.77;;;11.00;97.30;;;;;;5094873;28;20067;-68
2021/05/19 06:23:27;;;;;;;15.15;12.45;;;11.00;97.30;;;;;;5094915;28;20456;-68
2021/05/19 06:25:53;;;;;;;19.45;13.30;;;11.00;97.40;;;;;;5094700;28;20491;-68
2021/05/19 06:28:18;;;;;;;15.07;12.45;;;11.00;97.60;;;;;;5095008;28;20040;-69
2021/05/19 06:30:44;;;;;;;17.33;12.38;;;11.00;97.70;;;;;;5092813;28;20046;-68
2021/05/19 06:33:10;;;;;;;18.02;12.80;;;11.00;97.50;;;;;;5094586;28;20073;-68
2021/05/19 06:35:35;;;;;;;14.73;12.38;;;10.90;97.30;;;;;;5093463;28;20040;-68
2021/05/19 06:38:01;;;;;;;15.73;11.98;;;10.90;97.30;;;;;;5094354;28;20119;-68
2021/05/19 06:40:27;;;;;;;18.13;14.90;;;11.00;97.20;;;;;;5094454;28;20377;-68
2021/05/19 06:42:53;;;;;;;18.35;12.90;;;11.00;97.30;;;;;;5094795;28;20036;-68
2021/05/19 06:45:18;;;;;;;20.25;13.13;;;11.00;97.40;;;;;;5094580;28;20353;-68
2021/05/19 06:47:44;;;;;;;15.70;12.48;;;11.10;97.40;;;;;;5094642;28;20433;-68
2021/05/19 06:50:10;;;;;;;18.88;14.40;;;11.10;97.30;;;;;;5093874;28;20114;-68
2021/05/19 06:52:36;;;;;;;16.33;12.85;;;11.10;97.30;;;;;;5094461;28;20032;-68
2021/05/19 06:55:06;;;;;;;19.83;13.38;;;11.20;97.30;;;;;;5094185;28;20046;-68
2021/05/19 06:57:32;;;;;;;18.17;14.07;;;11.20;97.60;;;;;;5094567;28;20070;-68
2021/05/19 06:59:58;;;;;;;18.58;12.88;;;11.30;97.30;;;;;;5093589;28;20032;-68
2021/05/19 07:02:23;;;;;;;22.38;15.55;;;11.30;97.40;;;;;;5094215;28;20046;-69
2021/05/19 07:04:49;;;;;;;20.27;13.93;;;11.40;97.30;;;;;;5093721;28;20047;-69
2021/05/19 07:07:15;;;;;;;18.60;14.43;;;11.50;97.00;;;;;;5094273;28;20032;-69
2021/05/19 07:09:41;;;;;;;23.60;14.13;;;11.70;97.10;;;;;;5093390;28;20051;-69
2021/05/19 07:12:07;;;;;;;22.00;15.20;;;11.70;97.20;;;;;;5093758;28;20059;-70
2021/05/19 07:14:35;;;;;;;19.15;15.27;;;11.80;97.20;;;;;;5093645;28;20472;-69
2021/05/19 07:17:01;;;;;;;21.60;14.48;;;11.90;97.20;;;;;;5094097;28;20488;-69
2021/05/19 07:19:27;;;;;;;21.77;16.13;;;12.00;96.90;;;;;;5093262;28;20047;-69
2021/05/19 07:21:54;;;;;;;18.48;15.10;;;12.00;97.20;;;;;;5093910;28;20040;-69
2021/05/19 07:24:19;;;;;;;24.10;16.27;;;12.00;97.10;;;;;;5094111;28;20544;-69
2021/05/19 07:26:47;;;;;;;22.23;15.57;;;12.10;97.20;;;;;;5093942;28;20040;-69
2021/05/19 07:29:13;;;;;;;21.88;16.08;;;12.20;97.20;;;;;;5092483;28;20032;-69
2021/05/19 07:31:40;;;;;;;24.30;16.50;;;12.30;97.40;;;;;;5093357;28;20036;-69
2021/05/19 07:34:06;;;;;;;22.02;16.55;;;12.40;97.40;;;;;;5092911;28;20032;-69
2021/05/19 07:36:32;;;;;;;23.38;15.98;;;12.50;97.20;;;;;;5094080;28;20100;-69
2021/05/19 07:38:58;;;;;;;22.77;17.42;;;12.50;97.00;;;;;;5093147;28;20480;-69
2021/05/19 07:41:28;;;;;;;24.42;17.30;;;12.50;96.80;;;;;;5093401;28;20446;-70
2021/05/19 07:43:54;;;;;;;29.10;18.40;;;12.50;96.70;;;;;;5093503;28;20032;-69
2021/05/19 07:46:19;;;;;;;27.33;16.27;;;12.50;96.90;;;;;;5093695;28;20040;-69
2021/05/19 07:48:45;;;;;;;21.48;17.45;;;12.50;96.70;;;;;;5093343;28;20035;-70
2021/05/19 07:51:12;;;;;;;25.27;15.63;;;12.60;96.90;;;;;;5093716;28;20055;-69
2021/05/19 07:53:37;;;;;;;22.88;17.33;;;12.60;96.80;;;;;;5093323;28;20407;-70
2021/05/19 07:56:14;;;;;;;21.15;16.20;;;12.60;96.90;;;;;;5093351;28;20039;-69
2021/05/19 07:58:51;;;;;;;22.17;16.33;;;12.60;96.90;;;;;;5092920;28;20449;-70
2021/05/19 08:03:48;;;;;;;21.88;15.85;;;12.50;96.90;;;;;;5093836;28;20040;-69
2021/05/19 08:06:14;;;;;;;26.38;18.35;;;12.60;96.70;;;;;;5093803;28;20044;-70
2021/05/19 08:08:40;;;;;;;20.48;15.68;;;12.60;96.90;;;;;;5092873;28;20047;-70
2021/05/19 08:11:05;;;;;;;22.98;17.02;;;12.70;96.80;;;;;;5093154;28;20464;-70
2021/05/19 08:13:33;;;;;;;24.98;17.10;;;12.80;96.60;;;;;;5093042;28;20043;-69
2021/05/19 08:15:59;;;;;;;22.80;17.80;;;12.90;96.50;;;;;;5093654;28;20043;-69
2021/05/19 08:18:24;;;;;;;21.88;16.50;;;13.10;96.60;;;;;;5093095;28;20403;-70
2021/05/19 08:20:50;;;;;;;20.92;16.38;;;13.30;96.40;;;;;;5093400;28;20461;-69
2021/05/19 08:23:18;;;;;;;23.55;16.63;;;13.50;95.90;;;;;;5093597;28;20044;-70
2021/05/19 08:25:44;;;;;;;22.15;16.27;;;13.50;95.70;;;;;;5093024;28;20040;-70
2021/05/19 08:28:09;;;;;;;20.90;16.20;;;13.70;95.20;;;;;;5093236;28;20111;-70
2021/05/19 08:30:35;;;;;;;22.70;15.27;;;13.90;94.90;;;;;;5092583;28;20410;-70
2021/05/19 08:33:00;;;;;;;24.67;15.95;;;14.10;94.90;;;;;;5087820;28;20918;-70
2021/05/19 08:35:26;;;;;;;24.48;17.67;;;14.60;94.80;;;;;;5073068;28;20075;-70
2021/05/19 08:37:52;;;;;;;25.25;17.13;;;15.00;94.60;;;;;;5072723;28;20358;-69
2021/05/19 08:40:18;;;;;;;20.85;16.02;;;15.20;93.90;;;;;;5074567;28;20037;-69
2021/05/19 08:42:43;;;;;;;20.27;15.00;;;15.30;93.60;;;;;;5076040;28;20431;-74
2021/05/19 08:45:10;;;;;;;21.67;16.67;;;15.20;93.20;;;;;;5076214;28;20449;-73
2021/05/19 08:47:36;;;;;;;22.63;16.75;;;15.30;93.10;;;;;;5076380;28;20114;-73
2021/05/19 08:50:04;;;;;;;20.83;14.90;;;15.30;93.30;;;;;;5075989;28;20442;-73
2021/05/19 08:52:29;;;;;;;19.08;16.33;;;15.50;93.00;;;;;;5076280;28;20090;-72
2021/05/19 08:54:56;;;;;;;16.00;13.93;;;15.70;93.00;;;;;;5076294;28;20116;-73
2021/05/19 08:57:22;;;;;;;20.08;16.02;;;15.90;92.20;;;;;;5076397;28;20461;-73
2021/05/19 08:59:48;;;;;;;18.65;16.05;;;16.20;92.30;;;;;;5075737;28;20041;-72
2021/05/19 09:02:16;;;;;;;21.13;14.93;;;16.70;91.60;;;;;;5076068;28;20047;-73
2021/05/19 09:04:43;;;;;;;18.10;15.23;;;17.00;90.70;;;;;;5075921;28;20044;-73
2021/05/19 09:07:17;;;;;;;15.82;13.07;;;17.30;90.50;;;;;;5075966;28;20112;-73
2021/05/19 09:09:43;;;;;;;18.52;13.00;;;17.60;89.20;;;;;;5075813;28;20047;-73
2021/05/19 09:12:15;;;;;;;15.45;12.77;;;17.90;88.90;;;;;;5076212;28;20033;-73
2021/05/19 09:14:43;;;;;;;21.52;13.43;;;17.90;87.10;;;;;;5075880;28;20052;-74
2021/05/19 09:17:27;;;;;;;14.40;11.48;;;18.20;86.70;;;;;;5076477;28;20468;-74
2021/05/19 09:20:08;;;;;;;15.82;11.77;;;18.50;83.50;;;;;;5075612;28;20460;-74
2021/05/19 09:22:36;;;;;;;16.38;11.73;;;18.60;84.60;;;;;;5075692;28;20086;-74
2021/05/19 09:25:29;;;;;;;17.63;11.02;;;18.60;86.10;;;;;;5076097;28;20040;-73
2021/05/19 09:28:00;;;;;;;11.27;9.93;;;18.60;82.00;;;;;;5075713;28;20044;-74
2021/05/19 09:30:40;;;;;;;12.10;10.00;;;17.90;79.90;;;;;;5075210;28;20041;-74
2021/05/19 09:33:21;;;;;;;13.60;10.20;;;17.40;79.00;;;;;;5075827;28;20098;-74
2021/05/19 09:36:13;;;;;;;12.32;9.93;;;17.70;79.70;;;;;;5075998;28;20045;-74
2021/05/19 09:38:38;;;;;;;10.32;8.60;;;17.90;83.10;;;;;;5075107;28;20063;-74
2021/05/19 09:41:25;;;;;;;12.90;10.00;;;18.30;85.40;;;;;;5075564;28;20569;-74
2021/05/19 09:43:55;;;;;;;10.88;9.18;;;18.20;80.80;;;;;;5075220;28;20447;-74
2021/05/19 09:49:17;;;;;;;12.43;9.27;;;17.50;83.60;;;;;;5075007;28;20039;-74
2021/05/19 09:51:48;;;;;;;12.95;9.30;;;17.00;81.00;;;;;;5074845;28;20456;-74
2021/05/19 09:54:24;;;;;;;10.95;8.93;;;16.60;82.90;;;;;;5075280;28;20125;-74
2021/05/19 09:56:54;;;;;;;12.15;9.70;;;16.40;85.00;;;;;;5075711;28;20068;-74
2021/05/19 09:59:21;;;;;;;14.52;10.82;;;16.10;88.20;;;;;;5074473;28;20041;-73
2021/05/19 10:01:48;;;;;;;12.93;10.07;;;15.90;88.50;;;;;;5074954;28;20546;-73
2021/05/19 10:04:14;;;;;;;19.15;11.82;;;15.70;89.60;;;;;;5074888;28;20051;-73
2021/05/19 10:06:41;;;;;;;18.10;12.40;;;15.40;90.60;;;;;;5075480;28;20033;-73
2021/05/19 10:09:06;;;;;;;18.30;14.20;;;14.90;91.30;;;;;;5074771;28;20036;-72
2021/05/19 10:11:32;;;;;;;16.65;13.07;;;14.60;93.10;;;;;;5074120;28;20055;-72
2021/05/19 10:13:59;;;;;;;16.75;14.10;;;14.50;93.90;;;;;;5074792;28;20072;-72
2021/05/19 10:16:25;;;;;;;12.55;10.90;;;14.40;94.90;;;;;;5074876;28;20115;-72
2021/05/19 10:18:56;;;;;;;10.07;8.95;;;14.40;95.20;;;;;;5074418;28;20115;-73
2021/05/19 10:21:28;;;;;;;11.95;9.25;;;14.50;95.60;;;;;;5074559;28;20097;-72
2021/05/19 10:24:03;;;;;;;9.13;8.18;;;14.30;95.50;;;;;;5074990;28;20072;-72
2021/05/19 10:26:31;;;;;;;10.52;9.18;;;14.20;95.50;;;;;;5074393;28;20094;-72
2021/05/19 10:28:59;;;;;;;11.95;10.07;;;14.00;95.80;;;;;;5074148;28;20033;-72
2021/05/19 10:31:40;;;;;;;11.15;9.65;;;14.00;95.30;;;;;;5074623;28;20039;-72
2021/05/19 10:34:06;;;;;;;9.55;7.50;;;13.80;95.40;;;;;;5074164;28;20447;-72
2021/05/19 10:36:40;;;;;;;9.20;7.70;;;13.70;95.20;;;;;;5075054;28;20036;-72
2021/05/19 10:39:08;;;;;;;12.57;6.25;;;13.70;95.40;;;;;;5073761;28;20526;-72
2021/05/19 10:41:45;;;;;;;10.38;5.38;;;13.40;95.30;;;;;;5074314;28;20043;-71
2021/05/19 10:44:15;;;;;;;8.18;4.72;;;13.20;94.90;;;;;;5074463;28;20528;-72
2021/05/19 10:47:02;;;;;;;5.22;4.40;;;13.30;94.80;;;;;;5074364;28;20409;-72
2021/05/19 10:49:45;;;;;;;6.53;5.05;;;13.30;95.00;;;;;;5073799;28;20427;-72
2021/05/19 10:52:36;;;;;;;4.00;3.53;;;13.30;95.70;;;;;;5073869;28;20056;-71
2021/05/19 10:57:48;;;;;;;5.10;3.65;;;13.10;95.70;;;;;;5074369;28;20041;-71
2021/05/19 11:00:23;;;;;;;4.93;3.10;;;13.20;95.90;;;;;;5073735;28;20166;-71
2021/05/19 11:02:59;;;;;;;3.92;3.25;;;13.20;95.70;;;;;;5074252;28;20037;-71
2021/05/19 11:05:34;;;;;;;3.70;2.70;;;13.30;95.60;;;;;;5074398;28;20067;-73
2021/05/19 11:08:10;;;;;;;2.50;2.15;;;13.10;95.50;;;;;;5074208;28;20037;-73
2021/05/19 11:10:53;;;;;;;4.25;2.53;;;13.00;95.40;;;;;;5071920;28;20499;-73
2021/05/19 11:13:21;;;;;;;2.23;2.00;;;12.90;95.80;;;;;;5073141;28;20047;-73
2021/05/19 11:21:20;;;;;;;3.72;2.22;;;12.80;95.60;;;;;;5073963;28;20041;-72
2021/05/19 11:24:10;;;;;;;4.10;2.70;;;12.80;95.40;;;;;;5073399;28;20097;-73
2021/05/19 11:26:41;;;;;;;5.20;3.17;;;12.80;95.80;;;;;;5072799;28;20085;-73
2021/05/19 11:29:08;;;;;;;3.13;2.53;;;12.80;95.70;;;;;;5073590;28;20071;-73
2021/05/19 11:31:41;;;;;;;4.00;2.63;;;12.90;95.60;;;;;;5073331;28;20032;-73
2021/05/19 11:34:07;;;;;;;3.55;2.95;;;13.00;95.90;;;;;;5073818;28;20373;-73
2021/05/19 11:36:44;;;;;;;3.13;2.40;;;13.00;95.80;;;;;;5073514;28;20040;-73
2021/05/19 11:39:35;;;;;;;3.40;3.10;;;13.10;95.60;;;;;;5073171;28;20044;-73
2021/05/19 11:42:16;;;;;;;3.15;2.40;;;13.20;96.10;;;;;;5073902;28;20119;-73
2021/05/19 11:45:07;;;;;;;3.30;2.92;;;13.20;96.20;;;;;;5073707;28;20044;-73
2021/05/19 11:47:37;;;;;;;3.17;2.88;;;13.40;96.20;;;;;;5066664;28;20360;-73
2021/05/19 11:50:12;;;;;;;4.18;3.13;;;13.30;96.00;;;;;;5072744;28;20036;-73
2021/05/19 11:52:56;;;;;;;2.63;2.33;;;13.30;95.90;;;;;;5073740;28;20048;-73
2021/05/19 11:55:22;;;;;;;3.35;2.88;;;13.30;95.10;;;;;;5073708;28;20040;-73
2021/05/19 11:57:49;;;;;;;3.05;2.72;;;13.40;95.80;;;;;;5072940;28;20217;-73
2021/05/19 12:00:15;;;;;;;3.15;2.60;;;13.30;95.90;;;;;;5072620;28;20036;-73
2021/05/19 12:02:54;;;;;;;2.95;2.63;;;13.20;96.10;;;;;;5073046;28;20067;-73
2021/05/19 12:05:20;;;;;;;3.30;3.00;;;13.20;96.20;;;;;;5072964;28;20120;-73
2021/05/19 12:07:45;;;;;;;3.35;2.63;;;13.00;97.00;;;;;;5072844;28;20125;-73
2021/05/19 12:10:12;;;;;;;2.88;2.47;;;12.90;96.70;;;;;;5072429;28;20060;-73
2021/05/19 12:12:40;;;;;;;4.03;3.13;;;12.80;96.50;;;;;;5073309;28;20111;-73
2021/05/19 12:15:06;;;;;;;3.83;3.33;;;12.60;96.80;;;;;;5075013;28;20047;-73
2021/05/19 12:17:32;;;;;;;4.03;3.63;;;12.50;97.10;;;;;;5077254;28;20033;-73
2021/05/19 12:19:58;;;;;;;5.93;4.55;;;12.40;97.30;;;;;;5075172;28;20048;-73
2021/05/19 12:22:24;;;;;;;4.50;3.53;;;12.30;97.90;;;;;;5077029;28;20480;-73
2021/05/19 12:24:52;;;;;;;4.43;3.10;;;12.20;97.40;;;;;;5076633;28;20396;-73
2021/05/19 12:27:21;;;;;;;4.00;2.95;;;12.00;97.00;;;;;;5077119;28;20036;-73
2021/05/19 12:29:57;;;;;;;9.75;3.58;;;12.00;96.90;;;;;;5076434;28;20461;-73
2021/05/19 12:32:30;;;;;;;5.63;3.88;;;11.90;97.20;;;;;;5076374;28;20033;-73
2021/05/19 12:35:13;;;;;;;4.78;3.85;;;11.80;97.80;;;;;;5076439;28;20111;-73
2021/05/19 12:37:58;;;;;;;7.10;4.78;;;11.70;98.20;;;;;;5076499;28;20546;-73
2021/05/19 12:40:26;;;;;;;4.82;4.32;;;11.70;98.40;;;;;;5076409;28;20098;-73
2021/05/19 12:42:59;;;;;;;6.30;4.80;;;11.70;98.50;;;;;;5076384;28;20040;-73
2021/05/19 12:45:31;;;;;;;6.93;4.25;;;11.70;98.80;;;;;;5076949;28;20377;-73
2021/05/19 12:48:19;;;;;;;6.30;5.32;;;11.60;98.90;;;;;;5076290;28;20037;-72
2021/05/19 12:50:50;;;;;;;10.25;6.90;;;11.80;98.70;;;;;;5074990;28;20032;-73
2021/05/19 12:53:41;;;;;;;10.75;7.85;;;11.80;99.00;;;;;;5076121;28;20093;-72
2021/05/19 12:56:19;;;;;;;11.82;9.00;;;11.70;99.50;;;;;;5076824;28;20117;-73
2021/05/19 12:58:52;;;;;;;12.07;9.10;;;11.70;99.90;;;;;;5075994;28;20071;-72
2021/05/19 13:01:19;;;;;;;14.80;9.60;;;11.70;99.90;;;;;;5076028;28;20036;-72
2021/05/19 13:03:45;;;;;;;12.02;8.93;;;11.80;99.90;;;;;;5076072;28;20037;-72